FZAA/FIH METAR and TAF weather

Enter ICAO airport designator
Station Type Date Time Source
FZAA METAR 2021/09/20 04:00 UTC NOAA

FZAA 200400Z 00000KT 6000 FEW012 21/20 Q1012 NOSI


Station Type Date Time Source
FZAA Decoded METAR 2021/09/20 04:00 UTC NOAA

Kinshasa / N'Djili, Congo, Democratic Republic of the (FZAA) 04-23S 015-26E 312M
Sep 20, 2021 - 12:00 AM EDT / 2021.09.20 0400 UTC
Wind: Calm:0
Visibility: 3 mile(s):0
Sky conditions: mostly clear
Temperature: 69 F (21 C)
Dew Point: 68 F (20 C)
Relative Humidity: 94%
Pressure (altimeter): 29.88 in. Hg (1012 hPa)
ob: FZAA 200400Z 00000KT 6000 FEW012 21/20 Q1012 NOSI
cycle: 4

Station Type Date Time Source
FZAA TAF 2021/09/19 18:51 UTC NOAA

TAF TAF FZAA 191700Z 1918/2024 24006KT 6000 SCT018 PRROB30 2004/2007 4000 BR BKN14 TAF FZQA 191700Z1918/2024 10006KT 7000 NSC
FM200900 160015G20KT 9999 SCT023
BECMG 2015/2017 VRB03KT CAVOK

Example: see airport list